createdAt,value
2023-01-03T00:02:20.961Z,5.12
2023-01-03T00:04:49.676Z,5.21
2023-01-03T00:07:33.640Z,5.15
2023-01-03T00:10:02.693Z,5.12
2023-01-03T00:12:31.365Z,5.14
2023-01-03T00:14:59.480Z,5.15
2023-01-03T00:17:26.751Z,5.08
2023-01-03T00:19:53.556Z,4.97
2023-01-03T00:22:20.915Z,4.97
2023-01-03T00:24:49.327Z,5.06
2023-01-03T00:27:16.693Z,4.93
2023-01-03T00:29:43.367Z,5.01
2023-01-03T00:32:10.370Z,4.96
2023-01-03T00:34:37.099Z,4.89
2023-01-03T00:37:04.090Z,4.89
2023-01-03T00:39:30.749Z,4.90
2023-01-03T00:41:57.389Z,4.99
2023-01-03T00:44:23.995Z,4.97
2023-01-03T00:46:50.615Z,4.99
2023-01-03T00:49:17.345Z,5.03
2023-01-03T00:51:44.333Z,4.99
2023-01-03T00:54:12.851Z,4.92
2023-01-03T00:56:42.430Z,4.86
2023-01-03T00:59:09.932Z,4.78
2023-01-03T01:01:46.592Z,4.77
2023-01-03T01:04:16.639Z,4.74
2023-01-03T01:06:46.407Z,4.78
2023-01-03T01:09:22.703Z,4.72
2023-01-03T01:11:50.359Z,4.65
2023-01-03T01:14:21.097Z,4.56
2023-01-03T01:16:51.885Z,4.62
2023-01-03T01:19:20.888Z,4.67
2023-01-03T01:21:47.484Z,4.55
2023-01-03T01:24:18.071Z,4.51
2023-01-03T01:26:46.269Z,4.54
2023-01-03T01:29:14.235Z,4.48
2023-01-03T01:31:41.512Z,4.49
2023-01-03T01:34:08.625Z,4.43
2023-01-03T01:36:41.890Z,4.45
2023-01-03T01:39:13.163Z,4.59
2023-01-03T01:41:58.980Z,4.52
2023-01-03T01:44:49.883Z,4.58
2023-01-03T01:47:26.136Z,4.50
2023-01-03T01:50:05.483Z,4.42
2023-01-03T01:52:35.522Z,4.38
2023-01-03T01:55:04.582Z,4.39
2023-01-03T01:57:31.604Z,4.35
2023-01-03T01:59:58.587Z,4.40
2023-01-03T02:02:25.325Z,4.29
2023-01-03T02:04:55.974Z,4.23
2023-01-03T02:07:22.900Z,4.33
2023-01-03T02:09:55.401Z,4.19
2023-01-03T02:12:52.747Z,4.30
2023-01-03T02:15:31.040Z,4.25
2023-01-03T02:18:13.850Z,4.13
2023-01-03T02:21:20.120Z,4.07
2023-01-03T02:24:10.172Z,4.11
2023-01-03T02:26:58.275Z,4.13
2023-01-03T02:29:24.839Z,4.06
2023-01-03T02:32:14.160Z,4.07
2023-01-03T02:35:16.196Z,4.10
2023-01-03T02:38:04.092Z,4.01
2023-01-03T02:40:37.999Z,4.05
2023-01-03T02:43:21.984Z,3.99
2023-01-03T02:45:51.181Z,3.94
2023-01-03T02:48:36.247Z,3.89
2023-01-03T02:51:14.075Z,3.92
2023-01-03T02:53:47.531Z,3.98
2023-01-03T02:56:20.856Z,4.05
2023-01-03T02:58:53.036Z,3.96
2023-01-03T03:01:20.843Z,3.98
2023-01-03T03:03:48.535Z,3.86
2023-01-03T03:06:35.320Z,3.99
2023-01-03T03:09:02.010Z,3.91
2023-01-03T03:11:52.514Z,3.86
2023-01-03T03:14:30.692Z,3.92
2023-01-03T03:17:03.715Z,3.91
2023-01-03T03:19:55.753Z,3.88
2023-01-03T03:22:57.494Z,3.81
2023-01-03T03:25:33.228Z,3.88
2023-01-03T03:28:27.567Z,3.90
2023-01-03T03:30:58.754Z,3.80
2023-01-03T03:33:28.982Z,3.77
2023-01-03T03:36:03.301Z,3.74
2023-01-03T03:38:43.961Z,3.84
2023-01-03T03:41:47.130Z,3.87
2023-01-03T03:44:44.810Z,3.75
2023-01-03T03:47:25.657Z,3.73
2023-01-03T03:49:55.893Z,3.72
2023-01-03T03:52:28.014Z,3.74
2023-01-03T03:55:01.966Z,3.76
2023-01-03T03:57:33.913Z,3.82
2023-01-03T04:00:09.599Z,3.86
2023-01-03T04:02:37.882Z,3.72
2023-01-03T04:05:09.751Z,3.68
2023-01-03T04:07:36.799Z,3.68
2023-01-03T04:10:05.087Z,3.77
2023-01-03T04:12:31.779Z,3.68
2023-01-03T04:14:58.401Z,3.67
2023-01-03T04:17:25.066Z,3.60
2023-01-03T04:19:51.892Z,3.72
2023-01-03T04:22:18.478Z,3.60
2023-01-03T04:24:45.092Z,3.65
2023-01-03T04:27:11.657Z,3.66
2023-01-03T04:29:39.653Z,3.58
2023-01-03T04:32:07.507Z,3.54
2023-01-03T04:34:34.084Z,3.68
2023-01-03T04:37:00.756Z,3.59
2023-01-03T04:39:27.330Z,3.60
2023-01-03T04:41:53.913Z,3.47
2023-01-03T04:44:20.548Z,3.48
2023-01-03T04:46:52.577Z,3.51
2023-01-03T04:49:20.486Z,3.55
2023-01-03T04:51:47.124Z,3.48
2023-01-03T04:54:13.767Z,3.40
2023-01-03T04:56:40.387Z,3.45
2023-01-03T04:59:07.051Z,3.52
2023-01-03T05:01:33.879Z,3.37
2023-01-03T05:04:02.381Z,3.29
2023-01-03T05:06:29.474Z,3.32
2023-01-03T05:08:56.110Z,3.35
2023-01-03T05:11:23.027Z,3.39
2023-01-03T05:13:49.707Z,3.47
2023-01-03T05:16:16.672Z,3.38
2023-01-03T05:18:43.372Z,3.32
2023-01-03T05:21:36.587Z,3.35
2023-01-03T05:24:22.040Z,3.38
2023-01-03T05:26:48.985Z,3.30
2023-01-03T05:29:19.241Z,3.30
2023-01-03T05:31:45.943Z,3.29
2023-01-03T05:34:12.737Z,3.23
2023-01-03T05:36:39.761Z,3.25
2023-01-03T05:39:06.773Z,3.28
2023-01-03T05:41:52.143Z,3.24
2023-01-03T05:44:18.784Z,3.35
2023-01-03T05:46:45.394Z,3.30
2023-01-03T05:49:12.150Z,3.23
2023-01-03T05:51:39.109Z,3.16
2023-01-03T05:54:06.170Z,3.25
2023-01-03T05:56:33.375Z,3.24
2023-01-03T05:59:00.553Z,3.22
2023-01-03T06:01:28.550Z,3.27
2023-01-03T06:03:55.810Z,3.22
2023-01-03T06:06:22.619Z,3.23
2023-01-03T06:08:49.635Z,3.25
2023-01-03T06:11:17.497Z,3.30
2023-01-03T06:13:44.691Z,3.35
2023-01-03T06:16:35.943Z,3.33
2023-01-03T06:19:04.479Z,3.35
2023-01-03T06:21:31.156Z,3.35
2023-01-03T06:23:57.797Z,3.45
2023-01-03T06:26:25.128Z,3.51
2023-01-03T06:28:52.556Z,3.52
2023-01-03T06:31:19.731Z,3.57
2023-01-03T06:33:47.409Z,3.64
2023-01-03T06:36:16.312Z,3.68
2023-01-03T06:38:43.255Z,3.76
2023-01-03T06:41:10.916Z,3.82
2023-01-03T06:43:37.693Z,3.91
2023-01-03T06:46:23.400Z,3.96
2023-01-03T06:49:08.644Z,4.05
2023-01-03T06:51:53.831Z,4.13
2023-01-03T06:54:29.201Z,4.16
2023-01-03T06:56:56.115Z,4.25
2023-01-03T06:59:23.345Z,4.18
2023-01-03T07:01:51.437Z,4.36
2023-01-03T07:04:19.296Z,4.36
2023-01-03T07:06:46.178Z,4.42
2023-01-03T07:09:13.731Z,4.39
2023-01-03T07:11:41.246Z,4.50
2023-01-03T07:14:09.206Z,4.51
2023-01-03T07:16:37.580Z,4.61
2023-01-03T07:19:05.980Z,4.76
2023-01-03T07:21:34.390Z,4.72
2023-01-03T07:24:03.022Z,4.73
2023-01-03T07:26:32.208Z,4.93
2023-01-03T07:28:59.993Z,5.01
2023-01-03T07:31:26.923Z,5.40
2023-01-03T07:33:53.746Z,5.74
2023-01-03T07:36:21.769Z,5.82
2023-01-03T07:38:48.751Z,5.75
2023-01-03T07:41:16.700Z,5.84
2023-01-03T07:43:46.238Z,5.98
2023-01-03T07:46:17.083Z,6.01
2023-01-03T07:48:45.391Z,6.26
2023-01-03T07:51:15.671Z,6.72
2023-01-03T07:53:42.932Z,7.05
2023-01-03T07:56:15.742Z,7.27
2023-01-03T07:58:44.373Z,7.40
2023-01-03T08:01:14.380Z,7.23
2023-01-03T08:03:41.878Z,7.21
2023-01-03T08:06:14.242Z,7.55
2023-01-03T08:08:41.082Z,7.98
2023-01-03T08:11:30.348Z,8.01
2023-01-03T08:13:57.206Z,8.37
2023-01-03T08:16:23.876Z,8.64
2023-01-03T08:18:50.816Z,8.92
2023-01-03T08:21:17.723Z,9.02
2023-01-03T08:23:44.655Z,9.32
2023-01-03T08:26:16.368Z,9.61
2023-01-03T08:28:44.417Z,9.81
2023-01-03T08:31:21.229Z,10.05
2023-01-03T08:33:54.796Z,10.34
2023-01-03T08:36:23.602Z,10.62
2023-01-03T08:39:02.597Z,10.83
2023-01-03T08:41:33.301Z,10.93
2023-01-03T08:44:02.720Z,10.03
2023-01-03T08:46:30.957Z,9.70
2023-01-03T08:48:57.659Z,9.85
2023-01-03T08:51:26.765Z,10.01
2023-01-03T08:53:53.552Z,9.88
2023-01-03T08:56:20.436Z,9.72
2023-01-03T08:58:48.050Z,9.90
2023-01-03T09:01:14.804Z,10.11
2023-01-03T09:03:41.718Z,10.64
2023-01-03T09:06:08.468Z,10.93
2023-01-03T09:08:35.592Z,11.44
2023-01-03T09:11:06.702Z,11.75
2023-01-03T09:13:34.455Z,11.76
2023-01-03T09:16:08.815Z,11.93
2023-01-03T09:18:36.558Z,12.10
2023-01-03T09:21:05.008Z,13.00
2023-01-03T09:23:32.968Z,13.24
2023-01-03T09:25:59.728Z,13.75
2023-01-03T09:28:26.658Z,14.16
2023-01-03T09:30:53.347Z,14.43
2023-01-03T09:33:20.263Z,14.23
2023-01-03T09:35:46.887Z,14.63
2023-01-03T09:38:13.521Z,14.94
2023-01-03T09:40:45.624Z,15.24
2023-01-03T09:43:25.422Z,15.58
2023-01-03T09:46:01.405Z,15.05
2023-01-03T09:48:35.913Z,15.26
2023-01-03T09:51:24.246Z,15.92
2023-01-03T09:54:07.957Z,14.81
2023-01-03T09:56:53.392Z,14.43
2023-01-03T09:59:38.167Z,14.49
2023-01-03T10:02:44.717Z,15.34
2023-01-03T10:05:48.876Z,16.17
2023-01-03T10:08:38.852Z,16.26
2023-01-03T10:11:09.330Z,16.57
2023-01-03T10:13:38.789Z,16.78
2023-01-03T10:16:21.819Z,16.23
2023-01-03T10:18:51.185Z,16.56
2023-01-03T10:21:37.008Z,15.93
2023-01-03T10:24:17.033Z,16.35
2023-01-03T10:26:43.935Z,16.70
2023-01-03T10:29:18.753Z,18.09
2023-01-03T10:31:47.325Z,17.69
2023-01-03T10:34:13.964Z,18.01
2023-01-03T10:36:40.594Z,18.53
2023-01-03T10:39:11.386Z,19.55
2023-01-03T10:41:46.683Z,20.15
2023-01-03T10:44:30.591Z,20.88
2023-01-03T10:46:59.990Z,20.47
2023-01-03T10:49:31.416Z,18.94
2023-01-03T10:51:58.258Z,17.33
2023-01-03T10:54:52.869Z,16.58
2023-01-03T10:57:59.246Z,16.71
2023-01-03T11:00:36.174Z,17.56
2023-01-03T11:03:13.185Z,18.56
2023-01-03T11:05:42.380Z,19.69
2023-01-03T11:08:19.415Z,20.01
2023-01-03T11:10:53.306Z,21.22
2023-01-03T11:13:33.948Z,21.96
2023-01-03T11:16:03.564Z,22.64
2023-01-03T11:18:31.649Z,22.50
2023-01-03T11:21:04.356Z,22.71
2023-01-03T11:23:33.729Z,22.45
2023-01-03T11:26:12.302Z,22.77
2023-01-03T11:28:54.950Z,23.92
2023-01-03T11:31:44.718Z,24.33
2023-01-03T11:34:48.228Z,22.99
2023-01-03T11:37:33.359Z,24.66
2023-01-03T11:40:14.265Z,25.84
2023-01-03T11:43:13.131Z,25.10
2023-01-03T11:45:58.808Z,24.81
2023-01-03T11:49:00.988Z,24.29
2023-01-03T11:52:09.317Z,22.96
2023-01-03T11:54:54.762Z,22.10
2023-01-03T11:57:27.226Z,21.56
2023-01-03T12:00:06.465Z,21.76
2023-01-03T12:03:02.550Z,22.92
2023-01-03T12:05:29.190Z,23.66
2023-01-03T12:08:08.861Z,24.04
2023-01-03T12:11:09.215Z,23.71
2023-01-03T12:13:44.694Z,24.02
2023-01-03T12:16:39.472Z,22.71
2023-01-03T12:19:22.866Z,23.16
2023-01-03T12:22:01.589Z,21.94
2023-01-03T12:24:28.133Z,23.27
2023-01-03T12:27:27.156Z,24.41
2023-01-03T12:29:56.479Z,25.30
2023-01-03T12:32:39.038Z,26.33
2023-01-03T12:35:12.104Z,25.84
2023-01-03T12:37:40.338Z,26.32
2023-01-03T12:40:45.278Z,24.32
2023-01-03T12:43:22.039Z,26.17
2023-01-03T12:46:12.644Z,26.00
2023-01-03T12:48:54.987Z,25.73
2023-01-03T12:51:24.650Z,26.05
2023-01-03T12:54:03.279Z,25.66
2023-01-03T12:56:43.615Z,24.90
2023-01-03T12:59:47.801Z,24.77
2023-01-03T13:02:40.949Z,25.15
2023-01-03T13:05:13.337Z,25.93
2023-01-03T13:07:46.042Z,25.22
2023-01-03T13:10:19.129Z,24.95
2023-01-03T13:12:54.780Z,24.02
2023-01-03T13:15:37.356Z,24.41
2023-01-03T13:18:22.354Z,24.87
2023-01-03T13:20:50.751Z,24.70
2023-01-03T13:23:59.822Z,24.03
2023-01-03T13:26:28.275Z,23.88
2023-01-03T13:29:46.791Z,24.14
2023-01-03T13:32:18.368Z,24.72
2023-01-03T13:34:45.107Z,24.90
2023-01-03T13:37:16.260Z,24.33
2023-01-03T13:39:48.050Z,23.00
2023-01-03T13:42:27.452Z,21.89
2023-01-03T13:45:20.225Z,20.25
2023-01-03T13:47:50.311Z,19.07
2023-01-03T13:50:36.825Z,18.45
2023-01-03T13:53:11.018Z,17.73
2023-01-03T13:55:56.888Z,17.10
2023-01-03T13:58:43.295Z,16.41
2023-01-03T14:01:34.628Z,15.75
2023-01-03T14:04:22.962Z,15.24
2023-01-03T14:07:26.792Z,14.88
2023-01-03T14:10:12.394Z,14.55
2023-01-03T14:13:16.472Z,14.33
2023-01-03T14:15:43.117Z,13.95
2023-01-03T14:18:20.974Z,13.78
2023-01-03T14:20:51.287Z,13.49
2023-01-03T14:26:16.189Z,13.24
2023-01-03T14:28:49.309Z,13.06
2023-01-03T14:31:20.554Z,12.81
2023-01-03T14:33:53.439Z,12.63
2023-01-03T14:36:20.132Z,12.54
2023-01-03T14:38:55.233Z,12.40
2023-01-03T14:41:39.317Z,12.24
2023-01-03T14:44:14.558Z,12.18
2023-01-03T14:46:49.975Z,11.88
2023-01-03T14:49:35.288Z,11.82
2023-01-03T14:52:27.852Z,11.56
2023-01-03T14:55:03.439Z,11.38
2023-01-03T14:57:31.433Z,11.27
2023-01-03T15:00:00.970Z,11.05
2023-01-03T15:02:31.237Z,10.95
2023-01-03T15:05:01.132Z,10.73
2023-01-03T15:07:34.751Z,10.64
2023-01-03T15:10:04.359Z,10.48
2023-01-03T15:12:34.961Z,10.38
2023-01-03T15:15:08.984Z,10.20
2023-01-03T15:17:37.352Z,10.03
2023-01-03T15:20:08.588Z,9.92
2023-01-03T15:22:41.185Z,9.87
2023-01-03T15:25:18.514Z,9.82
2023-01-03T15:27:46.755Z,9.61
2023-01-03T15:30:20.842Z,9.62
2023-01-03T15:32:56.264Z,9.52
2023-01-03T15:35:27.873Z,9.40
2023-01-03T15:37:55.399Z,9.26
2023-01-03T15:40:23.244Z,9.14
2023-01-03T15:43:08.995Z,9.09
2023-01-03T15:45:39.068Z,9.01
2023-01-03T15:48:13.939Z,8.93
2023-01-03T15:50:59.781Z,8.76
2023-01-03T15:53:43.611Z,8.75
2023-01-03T15:56:35.639Z,8.74
2023-01-03T15:59:07.879Z,8.68
2023-01-03T16:01:34.580Z,8.58
2023-01-03T16:04:01.368Z,8.50
2023-01-03T16:06:27.996Z,8.41
2023-01-03T16:08:54.644Z,8.46
2023-01-03T16:11:31.444Z,8.35
2023-01-03T16:14:02.831Z,8.37
2023-01-03T16:16:34.975Z,8.31
2023-01-03T16:19:04.557Z,8.29
2023-01-03T16:21:31.963Z,8.22
2023-01-03T16:23:59.177Z,8.20
2023-01-03T16:26:26.085Z,8.09
2023-01-03T16:28:52.795Z,8.16
2023-01-03T16:31:27.939Z,8.16
2023-01-03T16:33:54.663Z,7.98
2023-01-03T16:36:37.122Z,7.98
2023-01-03T16:39:16.749Z,7.87
2023-01-03T16:42:04.709Z,7.83
2023-01-03T16:44:32.420Z,7.84
2023-01-03T16:46:59.322Z,7.72
2023-01-03T16:49:27.560Z,7.70
2023-01-03T16:51:57.749Z,7.70
2023-01-03T16:54:24.735Z,7.68
2023-01-03T16:56:51.354Z,7.62
2023-01-03T16:59:20.056Z,7.67
2023-01-03T17:01:47.774Z,7.63
2023-01-03T17:04:14.611Z,7.68
2023-01-03T17:06:42.107Z,7.59
2023-01-03T17:09:13.746Z,7.59
2023-01-03T17:11:40.563Z,7.51
2023-01-03T17:14:16.682Z,7.59
2023-01-03T17:16:43.517Z,7.51
2023-01-03T17:19:52.271Z,7.46
2023-01-03T17:22:04.619Z,7.44
2023-01-03T17:24:31.255Z,7.34
2023-01-03T17:27:04.050Z,7.38
2023-01-03T17:29:30.981Z,7.33
2023-01-03T17:31:57.717Z,7.30
2023-01-03T17:34:30.544Z,7.27
2023-01-03T17:36:59.770Z,7.20
2023-01-03T17:39:27.926Z,7.21
2023-01-03T17:42:12.992Z,7.12
2023-01-03T17:44:40.003Z,7.09
2023-01-03T17:47:43.381Z,7.15
2023-01-03T17:50:10.475Z,7.05
2023-01-03T17:52:38.354Z,7.06
2023-01-03T17:55:16.403Z,7.14
2023-01-03T17:57:43.056Z,6.98
2023-01-03T18:00:18.702Z,7.05
2023-01-03T18:02:45.520Z,7.03
2023-01-03T18:05:22.963Z,7.12
2023-01-03T18:07:51.507Z,7.02
2023-01-03T18:10:30.222Z,6.99
2023-01-03T18:12:57.099Z,6.84
2023-01-03T18:15:23.708Z,6.85
2023-01-03T18:17:50.550Z,6.93
2023-01-03T18:20:18.739Z,6.88
2023-01-03T18:22:46.430Z,6.93
2023-01-03T18:25:22.457Z,6.86
2023-01-03T18:28:02.578Z,6.91
2023-01-03T18:30:29.431Z,6.88
2023-01-03T18:32:56.033Z,6.82
2023-01-03T18:35:29.784Z,6.81
2023-01-03T18:38:01.021Z,6.82
2023-01-03T18:40:27.822Z,6.79
2023-01-03T18:43:10.706Z,6.75
2023-01-03T18:45:38.447Z,6.73
2023-01-03T18:48:05.809Z,6.75
2023-01-03T18:50:32.945Z,6.67
2023-01-03T18:53:04.208Z,6.70
2023-01-03T18:55:35.010Z,6.69
2023-01-03T18:58:38.963Z,6.70
2023-01-03T19:01:06.473Z,6.64
2023-01-03T19:03:34.892Z,6.64
2023-01-03T19:06:02.779Z,6.64
2023-01-03T19:08:34.035Z,6.64
2023-01-03T19:11:13.510Z,6.59
2023-01-03T19:13:51.042Z,6.52
2023-01-03T19:16:26.377Z,6.46
2023-01-03T19:18:53.854Z,6.51
2023-01-03T19:21:29.015Z,6.47
2023-01-03T19:24:19.865Z,6.48
2023-01-03T19:27:06.761Z,6.43
2023-01-03T19:29:37.192Z,6.49
2023-01-03T19:32:11.020Z,6.39
2023-01-03T19:34:37.697Z,6.38
2023-01-03T19:37:04.320Z,6.33
2023-01-03T19:39:36.860Z,6.38
2023-01-03T19:42:26.051Z,6.39
2023-01-03T19:44:53.404Z,6.44
2023-01-03T19:47:20.686Z,6.36
2023-01-03T19:49:48.356Z,6.33
2023-01-03T19:52:18.697Z,6.38
2023-01-03T19:54:45.394Z,6.40
2023-01-03T19:57:32.530Z,6.34
2023-01-03T20:00:01.483Z,6.33
2023-01-03T20:02:39.209Z,6.31
2023-01-03T20:05:23.579Z,6.33
2023-01-03T20:07:51.067Z,6.32
2023-01-03T20:10:23.790Z,6.31
2023-01-03T20:12:53.777Z,6.21
2023-01-03T20:15:32.481Z,6.23
2023-01-03T20:17:59.651Z,6.16
2023-01-03T20:20:30.302Z,6.32
2023-01-03T20:23:05.012Z,6.22
2023-01-03T20:25:33.527Z,6.16
2023-01-03T20:28:01.264Z,6.26
2023-01-03T20:30:30.485Z,6.34
2023-01-03T20:32:57.385Z,6.24
2023-01-03T20:36:08.382Z,6.24
2023-01-03T20:38:12.951Z,6.18
2023-01-03T20:40:39.617Z,6.16
2023-01-03T20:43:06.364Z,6.19
2023-01-03T20:45:33.476Z,6.14
2023-01-03T20:48:00.442Z,6.11
2023-01-03T20:50:28.693Z,6.04
2023-01-03T20:52:57.256Z,6.07
2023-01-03T20:55:26.815Z,6.11
2023-01-03T20:57:53.488Z,6.11
2023-01-03T21:00:32.415Z,6.03
2023-01-03T21:02:59.227Z,6.05
2023-01-03T21:05:26.381Z,6.04
2023-01-03T21:08:11.648Z,6.03
2023-01-03T21:10:44.226Z,6.01
2023-01-03T21:13:11.327Z,6.01
2023-01-03T21:15:38.414Z,6.00
2023-01-03T21:18:06.343Z,5.99
2023-01-03T21:20:33.378Z,5.96
2023-01-03T21:23:00.018Z,5.94
2023-01-03T21:25:35.632Z,5.96
2023-01-03T21:28:03.041Z,5.94
2023-01-03T21:30:31.624Z,5.95
2023-01-03T21:32:59.665Z,5.94
2023-01-03T21:35:26.588Z,5.92
2023-01-03T21:37:54.444Z,5.97
2023-01-03T21:40:22.606Z,5.91
2023-01-03T21:43:04.042Z,5.96
2023-01-03T21:45:36.334Z,5.91
2023-01-03T21:48:06.773Z,5.88
2023-01-03T21:50:37.115Z,5.85
2023-01-03T21:53:03.777Z,5.92
2023-01-03T21:55:33.147Z,5.84
2023-01-03T21:58:00.865Z,5.84
2023-01-03T22:00:27.468Z,5.80
2023-01-03T22:03:12.832Z,5.72
2023-01-03T22:05:39.489Z,5.73
2023-01-03T22:08:06.698Z,5.65
2023-01-03T22:10:34.426Z,5.71
2023-01-03T22:13:04.221Z,5.69
2023-01-03T22:15:30.962Z,5.69
2023-01-03T22:17:57.637Z,5.64
2023-01-03T22:20:26.374Z,5.74
2023-01-03T22:22:54.030Z,5.63
2023-01-03T22:25:23.858Z,5.65
2023-01-03T22:27:53.451Z,5.68
2023-01-03T22:30:20.642Z,5.59
2023-01-03T22:32:47.358Z,5.62
2023-01-03T22:35:16.680Z,5.60
2023-01-03T22:37:43.317Z,5.54
2023-01-03T22:40:15.568Z,5.53
2023-01-03T22:42:42.684Z,5.48
2023-01-03T22:45:10.248Z,5.59
2023-01-03T22:47:37.853Z,5.64
2023-01-03T22:50:05.661Z,5.59
2023-01-03T22:52:32.326Z,5.53
2023-01-03T22:54:59.065Z,5.54
2023-01-03T22:57:25.741Z,5.43
2023-01-03T22:59:52.361Z,5.43
2023-01-03T23:02:23.156Z,5.49
2023-01-03T23:04:52.970Z,5.52
2023-01-03T23:07:19.529Z,5.43
2023-01-03T23:09:46.127Z,5.42
2023-01-03T23:12:31.360Z,5.40
2023-01-03T23:14:57.962Z,5.46
2023-01-03T23:17:43.037Z,5.45
2023-01-03T23:20:10.318Z,5.38
2023-01-03T23:22:36.937Z,5.34
2023-01-03T23:25:03.661Z,5.42
2023-01-03T23:27:30.289Z,5.32
2023-01-03T23:29:56.942Z,5.37
2023-01-03T23:32:23.519Z,5.39
2023-01-03T23:34:50.141Z,5.21
2023-01-03T23:37:16.729Z,4.91
2023-01-03T23:39:43.716Z,4.67
2023-01-03T23:42:10.339Z,4.60
2023-01-03T23:44:36.933Z,4.47
2023-01-03T23:47:09.352Z,4.36
2023-01-03T23:49:38.396Z,4.34
2023-01-03T23:52:04.964Z,4.31
2023-01-03T23:54:31.612Z,4.26
2023-01-03T23:56:58.272Z,4.27
2023-01-03T23:59:24.846Z,4.32
